Time;durP1;ratioP1;P1;durP2;ratioP2;P2;SDS_P1;SDS_P2;PMS_P1;PMS_P2;Temp;Humidity;BMP_temperature;BMP_pressure;BME280_temperature;BME280_humidity;BME280_pressure;Samples;Min_cycle;Max_cycle;Signal;HPM_P1;HPM_P2
2021/03/02 00:01:43;;;;;;;12.35;6.38;;;;;;;;;;5054672;28;20208;-72
2021/03/02 00:04:09;;;;;;;15.55;7.00;;;;;;;;;;5054166;28;20204;-71
2021/03/02 00:06:36;;;;;;;15.60;7.03;;;;;;;;;;5054783;28;20519;-71
2021/03/02 00:09:02;;;;;;;15.95;6.97;;;;;;;;;;5054217;28;20640;-71
2021/03/02 00:11:28;;;;;;;18.17;6.63;;;;;;;;;;5054914;28;20585;-71
2021/03/02 00:13:54;;;;;;;11.75;5.60;;;;;;;;;;5054337;28;20198;-71
2021/03/02 00:16:21;;;;;;;12.13;6.00;;;;;;;;;;5054613;28;20654;-71
2021/03/02 00:18:50;;;;;;;12.65;6.28;;;;;;;;;;5054198;28;20511;-71
2021/03/02 00:21:17;;;;;;;11.32;6.28;;;;;;;;;;5054150;28;20201;-71
2021/03/02 00:23:43;;;;;;;13.43;6.05;;;;;;;;;;5054353;28;20269;-71
2021/03/02 00:26:11;;;;;;;10.02;6.32;;;;;;;;;;5046008;28;20640;-69
2021/03/02 00:28:39;;;;;;;8.65;4.85;;;;;;;;;;5053845;28;20190;-71
2021/03/02 00:31:05;;;;;;;11.15;5.70;;;;;;;;;;5054104;28;20613;-71
2021/03/02 00:33:32;;;;;;;9.35;5.25;;;;;;;;;;5054574;28;20713;-71
2021/03/02 00:35:58;;;;;;;13.32;5.47;;;;;;;;;;5053347;28;20257;-71
2021/03/02 00:38:24;;;;;;;9.73;5.85;;;;;;;;;;5053789;28;20323;-70
2021/03/02 00:40:51;;;;;;;13.23;6.53;;;;;;;;;;5053503;28;20193;-70
2021/03/02 00:43:17;;;;;;;14.43;6.93;;;;;;;;;;5053720;28;20193;-71
2021/03/02 00:45:43;;;;;;;14.57;6.85;;;;;;;;;;5054192;28;20204;-71
2021/03/02 00:48:09;;;;;;;9.60;7.00;;;;;;;;;;5053273;28;20193;-71
2021/03/02 00:50:36;;;;;;;14.07;6.55;;;;;;;;;;5054013;28;20215;-71
2021/03/02 00:53:03;;;;;;;12.05;6.68;;;;;;;;;;5053457;28;20220;-71
2021/03/02 00:55:29;;;;;;;17.17;6.90;;;;;;;;;;5054211;28;20201;-71
2021/03/02 00:57:55;;;;;;;14.15;7.30;;;;;;;;;;5053636;28;20658;-71
2021/03/02 01:00:21;;;;;;;13.15;6.63;;;;;;;;;;5045433;28;20251;-71
2021/03/02 01:02:47;;;;;;;18.38;7.95;;;;;;;;;;5053500;28;20211;-71
2021/03/02 01:05:13;;;;;;;18.77;8.10;;;;;;;;;;5053444;28;20653;-69
2021/03/02 01:07:40;;;;;;;16.70;8.02;;;;;;;;;;5053207;28;20447;-70
2021/03/02 01:10:07;;;;;;;15.88;7.65;;;;;;;;;;5053160;28;20205;-70
2021/03/02 01:12:33;;;;;;;12.18;6.80;;;;;;;;;;5053692;28;20232;-71
2021/03/02 01:15:00;;;;;;;16.15;6.78;;;;;;;;;;5052394;28;20221;-72
2021/03/02 01:17:26;;;;;;;14.75;5.95;;;;;;;;;;5044743;28;20194;-71
2021/03/02 01:19:52;;;;;;;10.75;7.10;;;;;;;;;;5052861;28;20225;-71
2021/03/02 01:22:18;;;;;;;14.95;7.55;;;;;;;;;;5052793;28;20197;-71
2021/03/02 01:24:45;;;;;;;14.60;8.30;;;;;;;;;;5052801;28;20594;-70
2021/03/02 01:27:11;;;;;;;12.55;6.50;;;;;;;;;;5052665;28;20708;-70
2021/03/02 01:29:37;;;;;;;13.05;7.43;;;;;;;;;;5053203;28;20646;-70
2021/03/02 01:32:04;;;;;;;17.70;7.70;;;;;;;;;;5052885;28;20197;-71
2021/03/02 01:34:30;;;;;;;17.17;7.65;;;;;;;;;;5044901;28;20308;-70
2021/03/02 01:36:56;;;;;;;14.43;7.47;;;;;;;;;;5052841;28;20200;-71
2021/03/02 01:39:22;;;;;;;12.18;6.93;;;;;;;;;;5052583;28;20200;-71
2021/03/02 01:41:49;;;;;;;13.98;8.07;;;;;;;;;;5052886;28;20312;-71
2021/03/02 01:44:15;;;;;;;16.10;8.02;;;;;;;;;;5052583;28;20639;-71
2021/03/02 01:46:41;;;;;;;15.80;7.25;;;;;;;;;;5052706;28;20196;-70
2021/03/02 01:49:07;;;;;;;14.40;8.00;;;;;;;;;;5052672;28;20197;-70
2021/03/02 01:51:33;;;;;;;12.40;6.80;;;;;;;;;;5044671;28;20193;-71
2021/03/02 01:53:59;;;;;;;14.55;7.85;;;;;;;;;;5052337;28;20476;-71
2021/03/02 01:56:25;;;;;;;10.70;5.93;;;;;;;;;;5052574;28;20240;-71
2021/03/02 01:58:52;;;;;;;9.85;5.85;;;;;;;;;;5052806;28;20190;-70
2021/03/02 02:01:19;;;;;;;13.20;7.40;;;;;;;;;;5052069;28;20280;-72
2021/03/02 02:03:46;;;;;;;13.07;6.13;;;;;;;;;;5052138;28;20264;-71
2021/03/02 02:06:14;;;;;;;9.90;5.53;;;;;;;;;;5051974;28;20281;-71
2021/03/02 02:08:44;;;;;;;9.77;5.75;;;;;;;;;;5052476;28;20186;-71
2021/03/02 02:11:15;;;;;;;12.55;6.07;;;;;;;;;;5052019;28;20266;-71
2021/03/02 02:13:45;;;;;;;15.85;6.80;;;;;;;;;;5052027;28;20291;-71
2021/03/02 02:16:12;;;;;;;16.35;8.05;;;;;;;;;;5052292;28;20276;-71
2021/03/02 02:18:40;;;;;;;13.07;6.78;;;;;;;;;;5052116;28;20670;-71
2021/03/02 02:21:15;;;;;;;10.77;6.18;;;;;;;;;;5051972;28;20212;-71
2021/03/02 02:23:46;;;;;;;11.95;6.15;;;;;;;;;;5052082;28;20189;-71
2021/03/02 02:26:20;;;;;;;11.38;6.15;;;;;;;;;;5052016;28;20228;-71
2021/03/02 02:28:48;;;;;;;12.48;6.03;;;;;;;;;;5052118;28;20558;-70
2021/03/02 02:31:14;;;;;;;14.68;7.70;;;;;;;;;;5051725;28;20272;-71
2021/03/02 02:33:41;;;;;;;13.75;6.47;;;;;;;;;;5052074;28;20221;-71
2021/03/02 02:36:09;;;;;;;8.98;6.13;;;;;;;;;;5043853;28;20225;-71
2021/03/02 02:38:35;;;;;;;12.23;6.18;;;;;;;;;;5052467;28;20650;-71
2021/03/02 02:41:02;;;;;;;14.48;5.95;;;;;;;;;;5051803;28;20189;-71
2021/03/02 02:43:28;;;;;;;11.43;6.75;;;;;;;;;;5052237;28;20192;-71
2021/03/02 02:45:55;;;;;;;16.17;7.30;;;;;;;;;;5051707;28;20305;-71
2021/03/02 02:48:22;;;;;;;15.60;7.55;;;;;;;;;;5052048;28;20182;-71
2021/03/02 02:50:49;;;;;;;11.13;7.40;;;;;;;;;;5052136;28;20280;-71
2021/03/02 02:53:16;;;;;;;15.93;8.38;;;;;;;;;;5051528;28;20303;-71
2021/03/02 02:55:44;;;;;;;17.67;8.30;;;;;;;;;;5052037;28;20216;-71
2021/03/02 02:58:10;;;;;;;15.50;7.40;;;;;;;;;;5051921;28;20201;-71
2021/03/02 03:00:37;;;;;;;15.05;6.88;;;;;;;;;;5052281;28;20268;-71
2021/03/02 03:03:06;;;;;;;12.20;6.95;;;;;;;;;;5051914;28;20207;-70
2021/03/02 03:05:33;;;;;;;14.38;7.03;;;;;;;;;;5051770;28;20186;-71
2021/03/02 03:08:03;;;;;;;15.23;8.30;;;;;;;;;;5051604;28;20198;-70
2021/03/02 03:10:29;;;;;;;16.42;7.53;;;;;;;;;;5051573;28;20227;-69
2021/03/02 03:12:59;;;;;;;10.73;6.82;;;;;;;;;;5051649;28;20650;-71
2021/03/02 03:15:26;;;;;;;17.30;8.32;;;;;;;;;;5051271;28;20316;-71
2021/03/02 03:17:53;;;;;;;11.85;7.60;;;;;;;;;;5051476;28;20308;-71
2021/03/02 03:20:20;;;;;;;15.88;7.45;;;;;;;;;;5051564;28;20947;-69
2021/03/02 03:22:47;;;;;;;14.20;8.27;;;;;;;;;;5051672;28;20208;-71
2021/03/02 03:25:14;;;;;;;12.38;8.10;;;;;;;;;;5051020;28;20343;-71
2021/03/02 03:27:42;;;;;;;11.55;8.35;;;;;;;;;;5051203;28;20271;-70
2021/03/02 03:30:10;;;;;;;11.82;7.82;;;;;;;;;;5051199;28;20284;-71
2021/03/02 03:32:37;;;;;;;27.42;9.10;;;;;;;;;;5051389;28;20273;-71
2021/03/02 03:35:03;;;;;;;15.82;8.88;;;;;;;;;;5051107;28;20225;-71
2021/03/02 03:37:30;;;;;;;13.38;7.82;;;;;;;;;;5051436;28;20193;-69
2021/03/02 03:39:56;;;;;;;13.25;7.18;;;;;;;;;;5053370;28;20635;-69
2021/03/02 03:42:22;;;;;;;16.08;7.05;;;;;;;;;;5054890;28;20196;-70
2021/03/02 03:44:49;;;;;;;14.93;10.30;;;;;;;;;;5055236;28;20612;-69
2021/03/02 03:47:15;;;;;;;13.95;7.38;;;;;;;;;;5046824;28;20277;-71
2021/03/02 03:49:41;;;;;;;16.48;8.07;;;;;;;;;;5054432;28;20221;-70
2021/03/02 03:52:09;;;;;;;14.20;6.50;;;;;;;;;;5054054;28;20717;-71
2021/03/02 03:54:36;;;;;;;16.42;7.45;;;;;;;;;;5054695;28;20518;-70
2021/03/02 03:57:02;;;;;;;16.52;6.25;;;;;;;;;;5054039;28;20224;-70
2021/03/02 03:59:28;;;;;;;10.73;6.25;;;;;;;;;;5054442;28;20208;-70
2021/03/02 04:01:55;;;;;;;10.93;5.38;;;;;;;;;;5054368;28;20200;-70
2021/03/02 04:04:22;;;;;;;11.48;6.25;;;;;;;;;;5054091;28;20292;-70
2021/03/02 04:06:48;;;;;;;13.18;7.15;;;;;;;;;;5054252;28;20209;-70
2021/03/02 04:09:15;;;;;;;11.75;6.53;;;;;;;;;;5054069;28;20274;-71
2021/03/02 04:11:42;;;;;;;13.13;7.40;;;;;;;;;;5054173;28;20250;-71
2021/03/02 04:14:08;;;;;;;12.73;8.77;;;;;;;;;;5054310;28;20731;-71
2021/03/02 04:16:35;;;;;;;15.40;9.65;;;;;;;;;;5054131;28;20225;-71
2021/03/02 04:19:01;;;;;;;21.15;10.38;;;;;;;;;;5054357;28;20601;-71
2021/03/02 04:21:27;;;;;;;14.03;9.13;;;;;;;;;;5053954;28;20193;-71
2021/03/02 04:23:53;;;;;;;22.98;9.18;;;;;;;;;;5053746;28;20447;-71
2021/03/02 04:26:20;;;;;;;14.85;8.88;;;;;;;;;;5054260;28;20703;-70
2021/03/02 04:28:47;;;;;;;11.30;9.15;;;;;;;;;;5053537;28;20197;-69
2021/03/02 04:31:13;;;;;;;15.63;8.48;;;;;;;;;;5054086;28;20197;-71
2021/03/02 04:33:39;;;;;;;18.60;9.43;;;;;;;;;;5053576;28;20334;-71
2021/03/02 04:36:06;;;;;;;12.93;9.05;;;;;;;;;;5053409;28;20478;-69
2021/03/02 04:38:32;;;;;;;10.90;6.18;;;;;;;;;;5054228;28;20283;-71
2021/03/02 04:40:57;;;;;;;16.25;8.23;;;;;;;;;;5054000;28;20559;-71
2021/03/02 04:43:23;;;;;;;15.37;9.40;;;;;;;;;;5053479;28;20199;-70
2021/03/02 04:45:50;;;;;;;19.15;9.30;;;;;;;;;;5053589;28;20439;-71
2021/03/02 04:48:16;;;;;;;16.55;8.73;;;;;;;;;;5045511;28;20198;-71
2021/03/02 04:50:42;;;;;;;18.53;8.50;;;;;;;;;;5052668;28;20203;-71
2021/03/02 04:53:08;;;;;;;12.30;6.77;;;;;;;;;;5053251;28;20620;-70
2021/03/02 04:55:34;;;;;;;16.10;7.40;;;;;;;;;;5053264;28;20527;-69
2021/03/02 04:58:00;;;;;;;15.95;9.32;;;;;;;;;;5053729;28;20458;-71
2021/03/02 05:00:26;;;;;;;11.90;8.33;;;;;;;;;;5053562;28;20195;-71
2021/03/02 05:02:53;;;;;;;20.55;11.40;;;;;;;;;;5053695;28;21356;-70
2021/03/02 05:05:19;;;;;;;10.50;8.70;;;;;;;;;;5053206;28;20262;-71
2021/03/02 05:07:45;;;;;;;19.40;8.75;;;;;;;;;;5053733;28;20195;-71
2021/03/02 05:10:11;;;;;;;16.85;8.25;;;;;;;;;;5053589;28;20215;-71
2021/03/02 05:12:37;;;;;;;18.10;9.82;;;;;;;;;;5053590;28;20681;-71
2021/03/02 05:15:04;;;;;;;15.73;9.43;;;;;;;;;;5053195;28;20252;-71
2021/03/02 05:17:30;;;;;;;13.52;7.32;;;;;;;;;;5053400;28;20199;-70
2021/03/02 05:19:57;;;;;;;15.35;9.88;;;;;;;;;;5053277;28;20191;-71
2021/03/02 05:22:23;;;;;;;16.65;9.48;;;;;;;;;;5052666;28;20204;-70
2021/03/02 05:24:49;;;;;;;15.83;8.00;;;;;;;;;;5052744;28;20220;-71
2021/03/02 05:27:15;;;;;;;22.05;11.20;;;;;;;;;;5052810;28;20951;-70
2021/03/02 05:29:41;;;;;;;16.92;9.68;;;;;;;;;;5052683;28;20280;-71
2021/03/02 05:32:07;;;;;;;20.30;9.90;;;;;;;;;;5052634;28;20557;-71
2021/03/02 05:34:33;;;;;;;15.27;7.87;;;;;;;;;;5052301;28;20527;-70
2021/03/02 05:36:59;;;;;;;15.43;8.23;;;;;;;;;;5052590;28;20460;-70
2021/03/02 05:39:25;;;;;;;16.05;7.38;;;;;;;;;;5052618;28;20452;-71
2021/03/02 05:41:52;;;;;;;12.43;5.93;;;;;;;;;;5052589;28;20214;-70
2021/03/02 05:44:18;;;;;;;12.27;7.00;;;;;;;;;;5052410;28;20234;-71
2021/03/02 05:46:44;;;;;;;14.00;7.07;;;;;;;;;;5052257;28;20224;-71
2021/03/02 05:49:10;;;;;;;15.05;6.70;;;;;;;;;;5052065;28;20224;-70
2021/03/02 05:51:38;;;;;;;13.15;8.48;;;;;;;;;;5052155;28;20200;-69
2021/03/02 05:54:05;;;;;;;9.00;6.13;;;;;;;;;;5052746;28;20201;-70
2021/03/02 05:56:31;;;;;;;13.88;7.40;;;;;;;;;;5052327;28;20293;-72
2021/03/02 05:58:57;;;;;;;19.95;8.25;;;;;;;;;;5051850;28;20210;-71
2021/03/02 06:01:23;;;;;;;13.47;7.33;;;;;;;;;;5052045;28;20263;-71
2021/03/02 06:03:49;;;;;;;14.00;7.27;;;;;;;;;;5051787;28;20989;-70
2021/03/02 06:06:15;;;;;;;16.58;8.43;;;;;;;;;;5052102;28;20443;-71
2021/03/02 06:08:44;;;;;;;16.33;7.33;;;;;;;;;;5052231;28;20258;-71
2021/03/02 06:11:23;;;;;;;13.35;7.57;;;;;;;;;;5051968;28;20580;-71
2021/03/02 06:13:50;;;;;;;10.35;6.72;;;;;;;;;;5051475;28;20222;-69
2021/03/02 06:16:16;;;;;;;13.60;8.65;;;;;;;;;;5052791;28;20602;-71
2021/03/02 06:18:47;;;;;;;14.55;7.68;;;;;;;;;;5052330;28;20294;-71
2021/03/02 06:21:13;;;;;;;16.40;9.98;;;;;;;;;;5044335;28;20187;-71
2021/03/02 06:23:47;;;;;;;12.52;7.75;;;;;;;;;;5052435;28;20209;-70
2021/03/02 06:26:24;;;;;;;20.70;8.60;;;;;;;;;;5052260;28;20653;-71
2021/03/02 06:28:51;;;;;;;16.52;7.28;;;;;;;;;;5052836;28;20196;-70
2021/03/02 06:31:33;;;;;;;14.52;6.95;;;;;;;;;;5043988;28;20530;-70
2021/03/02 06:34:03;;;;;;;14.40;8.23;;;;;;;;;;5051375;28;20220;-70
2021/03/02 06:36:29;;;;;;;20.45;8.15;;;;;;;;;;5051705;28;20631;-69
2021/03/02 06:38:55;;;;;;;16.77;8.02;;;;;;;;;;5052314;28;20229;-70
2021/03/02 06:41:22;;;;;;;12.15;7.25;;;;;;;;;;5052403;28;20193;-73
2021/03/02 06:43:48;;;;;;;14.55;8.23;;;;;;;;;;5051979;28;20203;-71
2021/03/02 06:46:15;;;;;;;15.63;7.53;;;;;;;;;;5051573;28;20214;-72
2021/03/02 06:48:51;;;;;;;13.52;8.32;;;;;;;;;;5051924;28;20514;-71
2021/03/02 06:51:24;;;;;;;15.52;7.82;;;;;;;;;;5051711;28;20210;-72
2021/03/02 06:54:01;;;;;;;15.18;7.20;;;;;;;;;;5052064;28;20224;-72
2021/03/02 06:56:27;;;;;;;12.15;7.18;;;;;;;;;;5052043;28;20213;-70
2021/03/02 06:59:08;;;;;;;19.43;8.17;;;;;;;;;;5051851;28;20198;-70
2021/03/02 07:01:36;;;;;;;11.88;6.57;;;;;;;;;;5051473;28;20450;-72
2021/03/02 07:04:08;;;;;;;13.13;7.80;;;;;;;;;;5051287;28;20252;-71
2021/03/02 07:06:35;;;;;;;19.13;8.90;;;;;;;;;;5051496;28;20205;-71
2021/03/02 07:09:01;;;;;;;15.48;8.43;;;;;;;;;;5051663;28;20204;-71
2021/03/02 07:11:28;;;;;;;23.70;8.97;;;;;;;;;;5051692;28;20190;-72
2021/03/02 07:13:54;;;;;;;13.48;7.95;;;;;;;;;;5052170;28;20491;-71
2021/03/02 07:16:20;;;;;;;15.88;8.73;;;;;;;;;;5055723;28;20275;-71
2021/03/02 07:18:48;;;;;;;15.50;8.90;;;;;;;;;;5055805;28;20243;-71
2021/03/02 07:21:15;;;;;;;25.95;11.75;;;;;;;;;;5055450;28;20212;-69
2021/03/02 07:23:41;;;;;;;20.58;11.13;;;;;;;;;;5055478;28;20194;-71
2021/03/02 07:26:08;;;;;;;18.88;10.55;;;;;;;;;;5055319;28;20381;-70
2021/03/02 07:28:36;;;;;;;16.90;9.90;;;;;;;;;;5054937;28;20207;-71
2021/03/02 07:31:02;;;;;;;19.92;10.98;;;;;;;;;;5054806;28;20302;-70
2021/03/02 07:33:28;;;;;;;24.27;9.75;;;;;;;;;;5055145;28;20211;-71
2021/03/02 07:35:56;;;;;;;23.17;11.53;;;;;;;;;;5054217;28;20238;-70
2021/03/02 07:38:22;;;;;;;21.80;10.90;;;;;;;;;;5053918;28;20596;-71
2021/03/02 07:40:49;;;;;;;23.17;11.50;;;;;;;;;;5054107;28;20201;-70
2021/03/02 07:43:30;;;;;;;15.85;10.18;;;;;;;;;;5054416;28;20188;-71
2021/03/02 07:45:58;;;;;;;14.35;9.45;;;;;;;;;;5051055;28;20628;-72
2021/03/02 07:48:24;;;;;;;17.58;10.27;;;;;;;;;;5054238;28;20189;-72
2021/03/02 07:51:13;;;;;;;13.45;7.97;;;;;;;;;;5054459;28;20201;-71
2021/03/02 07:53:39;;;;;;;14.52;8.48;;;;;;;;;;5053776;28;20313;-70
2021/03/02 07:56:21;;;;;;;13.75;7.88;;;;;;;;;;5053721;28;20242;-70
2021/03/02 07:59:06;;;;;;;15.20;8.30;;;;;;;;;;5051761;28;20184;-71
2021/03/02 08:01:32;;;;;;;12.90;7.65;;;;;;;;;;5054004;28;20207;-72
2021/03/02 08:04:13;;;;;;;17.48;9.75;;;;;;;;;;5054140;28;20718;-71
2021/03/02 08:06:41;;;;;;;17.45;8.85;;;;;;;;;;5053932;28;20805;-73
2021/03/02 08:09:22;;;;;;;17.05;8.32;;;;;;;;;;5053410;28;20205;-70
2021/03/02 08:11:48;;;;;;;18.42;9.02;;;;;;;;;;5054058;28;20545;-72
2021/03/02 08:14:29;;;;;;;16.80;9.10;;;;;;;;;;5053986;28;20213;-70
2021/03/02 08:16:57;;;;;;;14.93;8.68;;;;;;;;;;5047162;28;20247;-72
2021/03/02 08:19:30;;;;;;;14.60;8.52;;;;;;;;;;5053811;28;20204;-70
2021/03/02 08:21:57;;;;;;;17.08;7.50;;;;;;;;;;5046381;28;20666;-71
2021/03/02 08:24:48;;;;;;;17.90;8.25;;;;;;;;;;5052564;28;20194;-71
2021/03/02 08:27:14;;;;;;;13.50;7.55;;;;;;;;;;5048376;28;20651;-71
2021/03/02 08:29:47;;;;;;;14.77;8.00;;;;;;;;;;5052683;28;20602;-71
2021/03/02 08:32:13;;;;;;;14.35;7.60;;;;;;;;;;5053646;28;20196;-72
2021/03/02 08:34:40;;;;;;;11.68;7.10;;;;;;;;;;5052302;28;20287;-71
2021/03/02 08:37:07;;;;;;;12.15;6.38;;;;;;;;;;5053061;28;20284;-71
2021/03/02 08:39:33;;;;;;;16.13;7.50;;;;;;;;;;5052957;28;20193;-71
2021/03/02 08:41:59;;;;;;;14.98;7.28;;;;;;;;;;5052547;28;20273;-69
2021/03/02 08:44:26;;;;;;;11.50;7.60;;;;;;;;;;5052973;28;20197;-72
2021/03/02 08:46:53;;;;;;;17.77;9.50;;;;;;;;;;5052562;28;20304;-70
2021/03/02 08:49:19;;;;;;;14.73;7.57;;;;;;;;;;5053486;28;20201;-71
2021/03/02 08:51:46;;;;;;;13.32;7.00;;;;;;;;;;5052724;28;20287;-71
2021/03/02 08:54:13;;;;;;;12.20;7.82;;;;;;;;;;5052678;28;20214;-70
2021/03/02 08:56:39;;;;;;;19.27;7.30;;;;;;;;;;5053131;28;20194;-72
2021/03/02 08:59:06;;;;;;;11.43;6.50;;;;;;;;;;5052707;28;20200;-72
2021/03/02 09:01:34;;;;;;;12.55;7.47;;;;;;;;;;5053119;28;20625;-72
2021/03/02 09:04:07;;;;;;;10.85;6.90;;;;;;;;;;5052497;28;20198;-72
2021/03/02 09:06:34;;;;;;;9.93;6.38;;;;;;;;;;5053387;28;20201;-72
2021/03/02 09:09:01;;;;;;;12.07;6.35;;;;;;;;;;5053212;28;20207;-73
2021/03/02 09:11:29;;;;;;;11.85;7.68;;;;;;;;;;5049282;28;20181;-72
2021/03/02 09:13:56;;;;;;;10.75;6.10;;;;;;;;;;5049474;28;20217;-72
2021/03/02 09:16:23;;;;;;;18.55;8.02;;;;;;;;;;5052794;28;20185;-72
2021/03/02 09:18:57;;;;;;;14.32;6.85;;;;;;;;;;5052762;28;20218;-71
2021/03/02 09:21:23;;;;;;;12.30;6.55;;;;;;;;;;5046736;28;20216;-72
2021/03/02 09:23:49;;;;;;;15.73;6.95;;;;;;;;;;5052178;28;20195;-71
2021/03/02 09:26:18;;;;;;;13.23;6.85;;;;;;;;;;5052661;28;20472;-72
2021/03/02 09:28:49;;;;;;;12.40;6.75;;;;;;;;;;5052959;28;20635;-73
2021/03/02 09:31:15;;;;;;;10.48;6.00;;;;;;;;;;5052778;28;20268;-72
2021/03/02 09:33:42;;;;;;;12.00;6.45;;;;;;;;;;5052537;28;20205;-72
2021/03/02 09:36:08;;;;;;;12.13;7.10;;;;;;;;;;5051515;28;20258;-71
2021/03/02 09:38:34;;;;;;;12.95;6.75;;;;;;;;;;5051824;28;20649;-71
2021/03/02 09:41:00;;;;;;;14.13;7.63;;;;;;;;;;5052238;28;20561;-72
2021/03/02 09:43:33;;;;;;;13.52;6.85;;;;;;;;;;5052398;28;20191;-72
2021/03/02 09:46:00;;;;;;;14.15;8.13;;;;;;;;;;5051886;28;20253;-72
2021/03/02 09:48:26;;;;;;;13.98;7.25;;;;;;;;;;5052039;28;20601;-71
2021/03/02 09:50:52;;;;;;;13.90;6.30;;;;;;;;;;5052341;28;20196;-72
2021/03/02 09:53:18;;;;;;;20.88;10.88;;;;;;;;;;5052346;28;20451;-71
2021/03/02 09:55:46;;;;;;;15.20;7.32;;;;;;;;;;5051438;28;20251;-71
2021/03/02 09:58:15;;;;;;;13.23;7.40;;;;;;;;;;5051612;28;20215;-72
2021/03/02 10:00:48;;;;;;;14.82;7.15;;;;;;;;;;5052442;28;20201;-71
2021/03/02 10:03:16;;;;;;;13.52;6.72;;;;;;;;;;5051866;28;20200;-72
2021/03/02 10:05:43;;;;;;;10.98;5.72;;;;;;;;;;5051118;28;20303;-71
2021/03/02 10:08:23;;;;;;;14.32;7.00;;;;;;;;;;5051500;28;20186;-71
2021/03/02 10:10:49;;;;;;;13.90;7.25;;;;;;;;;;5051946;28;20193;-72
2021/03/02 10:13:21;;;;;;;12.13;6.30;;;;;;;;;;5051050;28;20193;-70
2021/03/02 10:15:47;;;;;;;10.60;6.15;;;;;;;;;;5051693;28;20205;-71
2021/03/02 10:18:23;;;;;;;15.20;6.60;;;;;;;;;;5051735;28;20229;-70
2021/03/02 10:21:02;;;;;;;12.70;6.75;;;;;;;;;;5050849;28;20197;-70
2021/03/02 10:23:28;;;;;;;15.32;9.23;;;;;;;;;;5051789;28;20189;-71
2021/03/02 10:25:56;;;;;;;12.90;7.60;;;;;;;;;;5051140;28;20189;-71
2021/03/02 10:28:28;;;;;;;14.80;6.45;;;;;;;;;;5051476;28;20194;-71
2021/03/02 10:30:54;;;;;;;13.02;7.78;;;;;;;;;;5051072;28;20197;-71
2021/03/02 10:33:20;;;;;;;14.85;7.57;;;;;;;;;;5051730;28;20223;-73
2021/03/02 10:35:48;;;;;;;9.80;6.20;;;;;;;;;;5051195;28;20308;-71
2021/03/02 10:38:14;;;;;;;12.20;7.05;;;;;;;;;;5051672;28;20310;-71
2021/03/02 10:40:40;;;;;;;16.42;6.35;;;;;;;;;;5051483;28;20197;-73
2021/03/02 10:43:06;;;;;;;25.07;7.10;;;;;;;;;;5051820;28;20278;-71
2021/03/02 10:45:32;;;;;;;18.02;9.40;;;;;;;;;;5051097;28;20456;-69
2021/03/02 10:47:58;;;;;;;16.58;7.90;;;;;;;;;;5052314;28;20196;-72
2021/03/02 10:50:24;;;;;;;13.45;6.57;;;;;;;;;;5054929;28;20548;-71
2021/03/02 10:52:51;;;;;;;20.98;8.55;;;;;;;;;;5055945;28;20580;-72
2021/03/02 10:55:17;;;;;;;16.42;6.82;;;;;;;;;;5054831;28;20249;-71
2021/03/02 10:57:43;;;;;;;14.73;7.60;;;;;;;;;;5054933;28;20261;-72
2021/03/02 11:00:11;;;;;;;14.95;6.45;;;;;;;;;;5055324;28;20765;-72
2021/03/02 11:02:37;;;;;;;10.80;5.80;;;;;;;;;;5055217;28;20525;-71
2021/03/02 11:05:06;;;;;;;16.63;5.80;;;;;;;;;;5054782;28;20313;-72
2021/03/02 11:07:32;;;;;;;12.98;6.35;;;;;;;;;;5055147;28;20472;-71
2021/03/02 11:09:59;;;;;;;14.77;6.55;;;;;;;;;;5054765;28;20482;-71
2021/03/02 11:12:25;;;;;;;12.35;6.97;;;;;;;;;;5055223;28;20195;-72
2021/03/02 11:14:51;;;;;;;14.43;6.15;;;;;;;;;;5054809;28;20212;-70
2021/03/02 11:17:17;;;;;;;11.30;6.90;;;;;;;;;;5054760;28;20200;-70
2021/03/02 11:19:43;;;;;;;14.50;5.80;;;;;;;;;;5055081;28;20707;-71
2021/03/02 11:22:10;;;;;;;16.33;8.38;;;;;;;;;;5055115;28;20223;-70
2021/03/02 11:24:36;;;;;;;12.07;6.65;;;;;;;;;;5047050;28;20245;-71
2021/03/02 11:27:03;;;;;;;13.68;5.25;;;;;;;;;;5055178;28;20195;-72
2021/03/02 11:29:35;;;;;;;9.60;5.15;;;;;;;;;;5054130;28;20203;-72
2021/03/02 11:32:01;;;;;;;13.98;7.10;;;;;;;;;;5054468;28;20224;-72
2021/03/02 11:34:27;;;;;;;14.60;6.97;;;;;;;;;;5054351;28;20284;-72
2021/03/02 11:36:53;;;;;;;13.55;6.35;;;;;;;;;;5054984;28;20196;-71
2021/03/02 11:39:19;;;;;;;11.13;5.90;;;;;;;;;;5054178;28;20275;-70
2021/03/02 11:41:46;;;;;;;13.90;6.35;;;;;;;;;;5054363;28;20300;-70
2021/03/02 11:44:13;;;;;;;11.82;5.25;;;;;;;;;;5053779;28;20202;-71
2021/03/02 11:46:39;;;;;;;11.32;6.55;;;;;;;;;;5052891;28;20675;-72
2021/03/02 11:49:05;;;;;;;14.65;5.70;;;;;;;;;;5054591;28;20234;-72
2021/03/02 11:51:31;;;;;;;10.50;5.85;;;;;;;;;;5055061;28;20200;-71
2021/03/02 11:53:57;;;;;;;9.02;5.47;;;;;;;;;;5053761;28;20273;-72
2021/03/02 11:56:23;;;;;;;9.47;5.53;;;;;;;;;;5055000;28;20198;-71
2021/03/02 11:58:49;;;;;;;15.18;6.50;;;;;;;;;;5054708;28;20505;-72
2021/03/02 12:01:16;;;;;;;11.80;6.45;;;;;;;;;;5053412;28;20196;-71
2021/03/02 12:03:42;;;;;;;12.90;6.78;;;;;;;;;;5054900;28;20498;-71
2021/03/02 12:06:08;;;;;;;9.70;5.68;;;;;;;;;;5054243;28;20568;-71
2021/03/02 12:08:35;;;;;;;14.75;6.78;;;;;;;;;;5054562;28;20219;-71
2021/03/02 12:11:01;;;;;;;12.93;6.63;;;;;;;;;;5054274;28;20232;-73
2021/03/02 12:13:27;;;;;;;8.67;5.57;;;;;;;;;;5054871;28;20243;-72
2021/03/02 12:15:54;;;;;;;18.02;7.22;;;;;;;;;;5054180;28;20792;-71
2021/03/02 12:18:20;;;;;;;15.70;7.65;;;;;;;;;;5054802;28;20551;-70
2021/03/02 12:20:46;;;;;;;11.48;5.93;;;;;;;;;;5054235;28;20583;-70
2021/03/02 12:23:12;;;;;;;12.35;6.15;;;;;;;;;;5053879;28;20251;-72
2021/03/02 12:25:38;;;;;;;13.03;6.03;;;;;;;;;;5053917;28;20278;-72
2021/03/02 12:28:05;;;;;;;13.52;6.45;;;;;;;;;;5053615;28;20446;-71
2021/03/02 12:30:31;;;;;;;10.68;5.57;;;;;;;;;;5054086;28;20877;-72
2021/03/02 12:32:57;;;;;;;18.90;6.25;;;;;;;;;;5053353;28;20552;-72
2021/03/02 12:35:24;;;;;;;11.13;6.43;;;;;;;;;;5052684;28;20268;-70
2021/03/02 12:37:50;;;;;;;12.32;6.22;;;;;;;;;;5053827;28;20205;-70
2021/03/02 12:40:17;;;;;;;11.75;5.13;;;;;;;;;;5052983;28;20310;-71
2021/03/02 12:42:43;;;;;;;11.88;5.53;;;;;;;;;;5053218;28;20193;-71
2021/03/02 12:45:09;;;;;;;14.55;6.28;;;;;;;;;;5052632;28;20220;-72
2021/03/02 12:47:35;;;;;;;14.50;8.85;;;;;;;;;;5052912;28;20201;-71
2021/03/02 12:50:07;;;;;;;13.38;6.75;;;;;;;;;;5053275;28;20683;-71
2021/03/02 12:52:34;;;;;;;18.75;5.80;;;;;;;;;;5053555;28;20193;-71
2021/03/02 12:55:01;;;;;;;12.20;6.13;;;;;;;;;;5053224;28;20864;-72
2021/03/02 12:57:27;;;;;;;12.10;6.20;;;;;;;;;;5053003;28;20567;-70
2021/03/02 12:59:53;;;;;;;11.70;5.38;;;;;;;;;;5053417;28;20548;-71
2021/03/02 13:02:19;;;;;;;7.53;4.68;;;;;;;;;;5053005;28;20201;-73
2021/03/02 13:04:45;;;;;;;11.18;5.85;;;;;;;;;;5052997;28;20224;-70
2021/03/02 13:07:12;;;;;;;9.25;5.28;;;;;;;;;;5052551;28;20205;-73
2021/03/02 13:09:39;;;;;;;12.57;5.35;;;;;;;;;;5052770;28;20209;-71
2021/03/02 13:12:05;;;;;;;17.60;5.78;;;;;;;;;;5052392;28;20208;-70
2021/03/02 13:14:31;;;;;;;11.25;5.38;;;;;;;;;;5052634;28;20210;-70
2021/03/02 13:16:57;;;;;;;9.90;5.75;;;;;;;;;;5052783;28;20205;-71
2021/03/02 13:19:23;;;;;;;11.93;5.43;;;;;;;;;;5052959;28;20189;-71
2021/03/02 13:21:49;;;;;;;12.32;5.97;;;;;;;;;;5052815;28;20197;-70
2021/03/02 13:24:15;;;;;;;11.63;4.83;;;;;;;;;;5052835;28;20344;-72
2021/03/02 13:26:44;;;;;;;11.85;6.18;;;;;;;;;;5052682;28;20446;-71
2021/03/02 13:29:11;;;;;;;6.75;4.50;;;;;;;;;;5052885;28;20235;-72
2021/03/02 13:31:39;;;;;;;7.47;4.60;;;;;;;;;;5052999;28;20201;-71
2021/03/02 13:34:08;;;;;;;20.13;7.30;;;;;;;;;;5053014;28;20695;-71
2021/03/02 13:36:35;;;;;;;15.57;5.70;;;;;;;;;;5052717;28;20200;-71
2021/03/02 13:39:01;;;;;;;11.77;5.50;;;;;;;;;;5052197;28;20269;-71
2021/03/02 13:41:29;;;;;;;11.90;4.80;;;;;;;;;;5052865;28;20687;-70
2021/03/02 13:43:58;;;;;;;14.50;5.18;;;;;;;;;;5052637;28;20205;-72
2021/03/02 13:46:24;;;;;;;9.70;4.72;;;;;;;;;;5052029;28;20278;-71
2021/03/02 13:48:50;;;;;;;10.23;4.45;;;;;;;;;;5051935;28;20210;-72
2021/03/02 13:51:17;;;;;;;8.80;4.43;;;;;;;;;;5052597;28;20732;-72
2021/03/02 13:53:43;;;;;;;11.35;5.63;;;;;;;;;;5052485;28;20626;-71
2021/03/02 13:56:09;;;;;;;10.27;5.20;;;;;;;;;;5052217;28;20211;-71
2021/03/02 13:58:36;;;;;;;7.40;4.50;;;;;;;;;;5052255;28;20208;-73
2021/03/02 14:01:03;;;;;;;14.32;4.13;;;;;;;;;;5051843;28;20469;-72
2021/03/02 14:03:29;;;;;;;8.85;4.40;;;;;;;;;;5051948;28;20273;-71
2021/03/02 14:05:59;;;;;;;11.38;4.97;;;;;;;;;;5052230;28;20217;-72
2021/03/02 14:08:25;;;;;;;11.93;4.80;;;;;;;;;;5052092;28;20543;-71
2021/03/02 14:10:51;;;;;;;9.75;5.43;;;;;;;;;;5051749;28;20209;-71
2021/03/02 14:13:18;;;;;;;9.93;5.10;;;;;;;;;;5052023;28;20200;-71
2021/03/02 14:15:44;;;;;;;10.17;5.00;;;;;;;;;;5051960;28;20471;-73
2021/03/02 14:18:13;;;;;;;11.03;4.70;;;;;;;;;;5051814;28;20509;-70
2021/03/02 14:20:39;;;;;;;14.13;5.10;;;;;;;;;;5051756;28;20527;-71
2021/03/02 14:23:05;;;;;;;20.37;4.80;;;;;;;;;;5051597;28;20447;-72
2021/03/02 14:25:31;;;;;;;9.00;4.83;;;;;;;;;;5051496;28;20439;-72
2021/03/02 14:27:57;;;;;;;11.43;5.60;;;;;;;;;;5051627;28;20436;-69
2021/03/02 14:30:24;;;;;;;11.03;4.90;;;;;;;;;;5051726;28;20446;-71
2021/03/02 14:32:50;;;;;;;8.63;5.40;;;;;;;;;;5051801;28;20856;-71